CheckWX is a tool to help pilots better visualize weather data.  It is not intended as a substitute for an official pre-flight weather briefing.

09:51:03 UTC

KOWD METAR
Norwood Memorial Airport
Norwood, Massachusetts, USA
Current

58 mins ago

KOWD 070853Z AUTO 32004KT 10SM CLR M02/M07 A3017 RMK AO2 SLP216 T10171067 51028
Observed
Dec-7 @ 08:53 UTC
Wind
  • 320° at 4 KTS
Visibility
10 SM
Flight Rules
VFR
Cloud Levels
  • Clear skies
Temperature
-2°C / 28°F
Dewpoint
-7°C / 19°F
Humidity
69%
Altimeter
30.17" Hg
Pressure
1021.72 hPa
Previous

2 hours ago

KOWD 070753Z AUTO 29005KT 10SM CLR M02/M06 A3014 RMK AO2 SLP208 T10171061
Observed
Dec-7 @ 07:53 UTC
Wind
  • 290° at 5 KTS
Visibility
10 SM
Flight Rules
VFR
Cloud Levels
  • Clear skies
Temperature
-2°C / 28°F
Dewpoint
-6°C / 21°F
Humidity
74%
Altimeter
30.14" Hg
Pressure
1020.62 hPa
Previous

3 hours ago

KOWD 070653Z AUTO 00000KT 10SM CLR M01/M06 A3012 RMK AO2 SLP200 T10061056
Observed
Dec-7 @ 06:53 UTC
Visibility
10 SM
Flight Rules
VFR
Cloud Levels
  • Clear skies
Temperature
-1°C / 30°F
Dewpoint
-6°C / 21°F
Humidity
69%
Altimeter
30.12" Hg
Pressure
1020.02 hPa